createdAt,value
2023-02-21T00:02:22.091Z,19.73
2023-02-21T00:05:42.607Z,20.20
2023-02-21T00:09:03.020Z,20.58
2023-02-21T00:12:23.910Z,21.08
2023-02-21T00:15:44.268Z,20.70
2023-02-21T00:19:04.796Z,20.88
2023-02-21T00:22:25.136Z,21.40
2023-02-21T00:25:45.681Z,20.98
2023-02-21T00:29:05.846Z,20.48
2023-02-21T00:32:26.250Z,19.35
2023-02-21T00:35:46.504Z,20.33
2023-02-21T00:39:07.167Z,20.02
2023-02-21T00:42:27.656Z,21.48
2023-02-21T00:45:47.965Z,22.48
2023-02-21T00:49:08.560Z,21.38
2023-02-21T00:52:28.919Z,21.48
2023-02-21T00:55:49.209Z,21.83
2023-02-21T00:59:09.496Z,21.25
2023-02-21T01:02:30.169Z,21.80
2023-02-21T01:05:50.816Z,21.00
2023-02-21T01:09:11.176Z,22.17
2023-02-21T01:12:31.752Z,21.40
2023-02-21T01:15:52.034Z,22.05
2023-02-21T01:19:12.630Z,21.65
2023-02-21T01:22:32.973Z,21.77
2023-02-21T01:25:53.242Z,23.38
2023-02-21T01:29:13.496Z,21.70
2023-02-21T01:32:33.882Z,20.83
2023-02-21T01:35:54.117Z,20.67
2023-02-21T01:39:14.574Z,22.08
2023-02-21T01:42:36.337Z,20.13
2023-02-21T01:46:23.262Z,20.70
2023-02-21T01:49:43.791Z,20.27
2023-02-21T01:53:05.327Z,21.05
2023-02-21T01:56:27.755Z,20.65
2023-02-21T01:59:48.846Z,20.17
2023-02-21T02:03:13.052Z,21.52
2023-02-21T02:06:35.252Z,21.13
2023-02-21T02:09:55.886Z,20.05
2023-02-21T02:13:16.705Z,19.73
2023-02-21T02:16:24.846Z,21.33
2023-02-21T02:19:47.862Z,20.58
2023-02-21T02:23:13.147Z,21.37
2023-02-21T02:26:27.275Z,21.50
2023-02-21T02:29:47.951Z,19.08
2023-02-21T02:33:17.601Z,21.52
2023-02-21T02:36:52.959Z,19.73
2023-02-21T02:40:22.916Z,19.63
2023-02-21T02:43:27.697Z,20.20
2023-02-21T02:46:32.087Z,20.15
2023-02-21T02:49:38.637Z,19.70
2023-02-21T02:52:53.997Z,20.85
2023-02-21T02:56:01.434Z,21.98
2023-02-21T02:59:07.684Z,19.77
2023-02-21T03:02:28.197Z,20.35
2023-02-21T03:05:43.845Z,20.38
2023-02-21T03:09:03.708Z,21.08
2023-02-21T03:12:15.461Z,21.48
2023-02-21T03:15:22.978Z,20.55
2023-02-21T03:18:37.568Z,21.52
2023-02-21T03:21:56.905Z,21.05
2023-02-21T03:25:03.838Z,22.58
2023-02-21T03:28:06.259Z,21.05
2023-02-21T03:31:09.935Z,21.27
2023-02-21T03:34:12.082Z,21.65
2023-02-21T03:37:34.968Z,20.73
2023-02-21T03:40:36.882Z,20.97
2023-02-21T03:43:38.857Z,21.38
2023-02-21T03:46:41.082Z,21.80
2023-02-21T03:49:43.266Z,20.75
2023-02-21T03:52:45.636Z,21.30
2023-02-21T03:55:47.469Z,22.17
2023-02-21T03:58:49.240Z,21.83
2023-02-21T04:01:51.365Z,22.85
2023-02-21T04:04:53.487Z,22.75
2023-02-21T04:07:55.227Z,23.70
2023-02-21T04:10:56.999Z,22.80
2023-02-21T04:13:58.824Z,21.70
2023-02-21T04:17:01.024Z,21.85
2023-02-21T04:20:03.062Z,21.02
2023-02-21T04:23:04.897Z,19.70
2023-02-21T04:26:06.654Z,19.55
2023-02-21T04:29:09.741Z,21.17
2023-02-21T04:32:11.885Z,18.88
2023-02-21T04:35:13.831Z,18.77
2023-02-21T04:38:15.659Z,19.75
2023-02-21T04:41:18.065Z,19.40
2023-02-21T04:44:19.849Z,18.88
2023-02-21T04:47:21.615Z,18.92
2023-02-21T04:50:23.383Z,18.00
2023-02-21T04:53:25.300Z,17.38
2023-02-21T04:56:28.104Z,16.67
2023-02-21T04:59:29.995Z,18.25
2023-02-21T05:02:31.732Z,18.00
2023-02-21T05:05:33.542Z,19.23
2023-02-21T05:08:36.572Z,18.58
2023-02-21T05:11:38.331Z,19.75
2023-02-21T05:14:41.857Z,20.25
2023-02-21T05:17:46.392Z,19.55
2023-02-21T05:20:51.109Z,20.20
2023-02-21T05:23:58.778Z,20.63
2023-02-21T05:27:00.853Z,20.88
2023-02-21T05:30:02.775Z,21.70
2023-02-21T05:33:04.574Z,22.35
2023-02-21T05:36:06.844Z,22.33
2023-02-21T05:39:09.909Z,23.50
2023-02-21T05:42:11.888Z,24.38
2023-02-21T05:45:13.734Z,25.60
2023-02-21T05:48:15.982Z,24.90
2023-02-21T05:51:18.196Z,25.15
2023-02-21T05:54:21.406Z,26.23
2023-02-21T05:57:23.135Z,25.73
2023-02-21T06:00:28.335Z,26.48
2023-02-21T06:03:30.360Z,23.52
2023-02-21T06:06:32.369Z,22.25
2023-02-21T06:09:34.851Z,25.38
2023-02-21T06:12:37.397Z,25.00
2023-02-21T06:15:39.146Z,26.80
2023-02-21T06:18:41.164Z,27.27
2023-02-21T06:21:43.469Z,26.70
2023-02-21T06:24:45.241Z,27.63
2023-02-21T06:27:47.053Z,27.70
2023-02-21T06:30:49.171Z,27.75
2023-02-21T06:33:51.238Z,27.88
2023-02-21T06:36:54.465Z,26.92
2023-02-21T06:39:56.522Z,25.88
2023-02-21T06:42:58.592Z,27.67
2023-02-21T06:46:00.418Z,25.80
2023-02-21T06:49:02.605Z,25.30
2023-02-21T06:52:04.932Z,24.15
2023-02-21T06:55:07.463Z,25.75
2023-02-21T06:58:09.371Z,24.00
2023-02-21T07:01:11.461Z,22.75
2023-02-21T07:04:13.556Z,22.25
2023-02-21T07:07:16.502Z,22.00
2023-02-21T07:10:18.680Z,22.23
2023-02-21T07:13:22.479Z,21.63
2023-02-21T07:16:25.283Z,19.98
2023-02-21T07:19:27.108Z,19.80
2023-02-21T07:22:29.015Z,20.92
2023-02-21T07:25:31.360Z,20.30
2023-02-21T07:28:33.337Z,21.15
2023-02-21T07:31:35.195Z,19.15
2023-02-21T07:34:37.259Z,19.80
2023-02-21T07:37:39.070Z,19.25
2023-02-21T07:40:40.780Z,18.95
2023-02-21T07:43:42.967Z,18.50
2023-02-21T07:46:46.473Z,18.35
2023-02-21T07:49:48.380Z,16.63
2023-02-21T07:52:50.422Z,17.42
2023-02-21T07:55:52.450Z,17.23
2023-02-21T07:58:54.316Z,16.75
2023-02-21T08:01:56.159Z,17.02
2023-02-21T08:04:57.913Z,16.58
2023-02-21T08:07:59.679Z,18.00
2023-02-21T08:11:02.527Z,16.77
2023-02-21T08:14:04.622Z,18.45
2023-02-21T08:17:06.345Z,19.63
2023-02-21T08:20:09.115Z,19.05
2023-02-21T08:23:10.958Z,16.13
2023-02-21T08:26:12.709Z,15.18
2023-02-21T08:29:15.636Z,15.23
2023-02-21T08:32:17.961Z,13.45
2023-02-21T08:35:20.814Z,13.30
2023-02-21T08:38:22.969Z,14.48
2023-02-21T08:41:25.754Z,14.88
2023-02-21T08:44:27.704Z,15.88
2023-02-21T08:47:29.772Z,15.10
2023-02-21T08:50:32.352Z,13.90
2023-02-21T08:53:34.106Z,13.75
2023-02-21T08:56:35.889Z,14.25
2023-02-21T08:59:42.805Z,13.52
2023-02-21T09:02:44.780Z,13.30
2023-02-21T09:05:46.598Z,14.05
2023-02-21T09:08:48.638Z,15.18
2023-02-21T09:11:50.349Z,14.90
2023-02-21T09:14:52.118Z,14.48
2023-02-21T09:17:54.683Z,14.75
2023-02-21T09:20:57.450Z,14.82
2023-02-21T09:23:59.588Z,14.75
2023-02-21T09:27:04.466Z,15.02
2023-02-21T09:30:14.341Z,15.05
2023-02-21T09:33:17.584Z,14.30
2023-02-21T09:36:24.187Z,13.88
2023-02-21T09:39:26.191Z,13.65
2023-02-21T09:42:32.170Z,13.70
2023-02-21T09:45:36.449Z,13.32
2023-02-21T09:48:40.349Z,12.75
2023-02-21T09:51:43.901Z,11.45
2023-02-21T09:54:51.805Z,11.18
2023-02-21T09:57:54.920Z,12.27
2023-02-21T10:01:08.995Z,11.82
2023-02-21T10:04:37.326Z,12.23
2023-02-21T10:08:13.478Z,11.63
2023-02-21T10:11:38.121Z,11.32
2023-02-21T10:14:58.391Z,11.05
2023-02-21T10:18:05.048Z,10.85
2023-02-21T10:21:24.826Z,36.38
2023-02-21T10:24:28.750Z,14.38
2023-02-21T10:27:33.426Z,12.07
2023-02-21T10:30:40.951Z,11.88
2023-02-21T10:33:43.256Z,12.70
2023-02-21T10:36:45.245Z,11.88
2023-02-21T10:39:52.428Z,12.75
2023-02-21T10:43:01.857Z,11.75
2023-02-21T10:46:34.283Z,12.80
2023-02-21T10:49:56.251Z,13.55
2023-02-21T10:52:58.025Z,13.93
2023-02-21T10:56:18.665Z,14.10
2023-02-21T10:59:33.153Z,12.15
2023-02-21T11:02:40.367Z,12.20
2023-02-21T11:05:52.198Z,11.43
2023-02-21T11:08:55.140Z,13.32
2023-02-21T11:12:20.452Z,12.77
2023-02-21T11:15:23.048Z,12.35
2023-02-21T11:18:26.021Z,14.50
2023-02-21T11:21:28.484Z,14.85
2023-02-21T11:24:30.718Z,13.88
2023-02-21T11:27:36.302Z,13.35
2023-02-21T11:30:44.538Z,13.73
2023-02-21T11:34:10.598Z,14.07
2023-02-21T11:37:12.396Z,15.52
2023-02-21T11:40:32.865Z,14.48
2023-02-21T11:43:34.737Z,13.82
2023-02-21T11:46:47.287Z,13.70
2023-02-21T11:50:07.925Z,14.50
2023-02-21T11:53:31.540Z,17.30
2023-02-21T11:57:01.276Z,15.02
2023-02-21T12:00:40.040Z,14.07
2023-02-21T12:03:56.935Z,13.40
2023-02-21T12:07:22.022Z,13.43
2023-02-21T12:10:42.666Z,13.15
2023-02-21T12:13:50.317Z,12.90
2023-02-21T12:17:20.204Z,12.95
2023-02-21T12:20:29.033Z,12.93
2023-02-21T12:23:45.997Z,12.65
2023-02-21T12:26:57.009Z,12.68
2023-02-21T12:30:06.912Z,12.73
2023-02-21T12:33:11.905Z,13.20
2023-02-21T12:36:17.325Z,12.48
2023-02-21T12:39:39.706Z,12.52
2023-02-21T12:42:50.521Z,12.60
2023-02-21T12:45:55.326Z,12.30
2023-02-21T12:49:12.261Z,11.85
2023-02-21T12:52:32.176Z,11.25
2023-02-21T12:55:47.584Z,11.95
2023-02-21T12:58:59.578Z,11.35
2023-02-21T13:02:12.446Z,13.48
2023-02-21T13:05:19.435Z,13.68
2023-02-21T13:08:35.116Z,13.55
2023-02-21T13:11:58.299Z,17.45
2023-02-21T13:15:25.937Z,12.43
2023-02-21T13:18:59.307Z,12.50
2023-02-21T13:22:18.330Z,12.13
2023-02-21T13:25:53.493Z,12.40
2023-02-21T13:28:57.474Z,11.10
2023-02-21T13:32:03.170Z,11.02
2023-02-21T13:35:09.450Z,10.50
2023-02-21T13:38:12.337Z,10.85
2023-02-21T13:41:16.966Z,11.48
2023-02-21T13:44:30.610Z,11.23
2023-02-21T13:47:59.983Z,10.18
2023-02-21T13:51:01.949Z,11.18
2023-02-21T13:54:11.602Z,11.23
2023-02-21T13:57:32.604Z,11.07
2023-02-21T14:00:34.350Z,11.50
2023-02-21T14:03:36.193Z,11.88
2023-02-21T14:06:38.180Z,10.63
2023-02-21T14:09:42.638Z,11.25
2023-02-21T14:12:45.574Z,10.75
2023-02-21T14:15:50.143Z,10.13
2023-02-21T14:19:02.188Z,10.27
2023-02-21T14:22:12.200Z,10.32
2023-02-21T14:25:25.928Z,10.48
2023-02-21T14:29:11.254Z,11.82
2023-02-21T14:32:13.171Z,11.57
2023-02-21T14:35:20.909Z,13.70
2023-02-21T14:38:26.145Z,12.55
2023-02-21T14:41:57.114Z,11.88
2023-02-21T14:45:04.889Z,11.52
2023-02-21T14:48:44.646Z,11.18
2023-02-21T14:51:55.546Z,13.05
2023-02-21T14:55:26.567Z,13.13
2023-02-21T14:58:44.479Z,13.35
2023-02-21T15:01:52.682Z,12.38
2023-02-21T15:05:17.839Z,14.32
2023-02-21T15:08:24.790Z,15.88
2023-02-21T15:11:29.973Z,15.23
2023-02-21T15:14:41.617Z,15.68
2023-02-21T15:17:45.648Z,14.68
2023-02-21T15:20:47.506Z,13.35
2023-02-21T15:24:12.981Z,15.98
2023-02-21T15:27:14.792Z,14.57
2023-02-21T15:30:22.414Z,14.88
2023-02-21T15:33:27.862Z,15.57
2023-02-21T15:36:30.396Z,14.60
2023-02-21T15:39:38.725Z,16.43
2023-02-21T15:42:42.277Z,16.83
2023-02-21T15:45:51.276Z,16.52
2023-02-21T15:48:56.363Z,16.38
2023-02-21T15:51:58.396Z,16.35
2023-02-21T15:55:18.694Z,16.95
2023-02-21T15:58:20.586Z,17.05
2023-02-21T16:01:24.930Z,17.00
2023-02-21T16:04:37.105Z,15.82
2023-02-21T16:07:43.904Z,14.27
2023-02-21T16:10:46.884Z,15.40
2023-02-21T16:13:48.795Z,15.32
2023-02-21T16:16:58.784Z,16.40
2023-02-21T16:20:13.775Z,16.67
2023-02-21T16:23:32.747Z,16.92
2023-02-21T16:26:34.745Z,15.73
2023-02-21T16:29:36.532Z,15.68
2023-02-21T16:32:39.653Z,16.98
2023-02-21T16:35:42.453Z,16.17
2023-02-21T16:38:44.205Z,15.45
2023-02-21T16:41:46.100Z,16.45
2023-02-21T16:44:48.368Z,18.02
2023-02-21T16:47:55.834Z,20.10
2023-02-21T16:50:57.849Z,19.95
2023-02-21T16:53:59.779Z,18.13
2023-02-21T16:57:01.524Z,17.75
2023-02-21T17:00:04.174Z,16.65
2023-02-21T17:03:06.045Z,15.73
2023-02-21T17:06:08.114Z,15.20
2023-02-21T17:09:19.300Z,18.75
2023-02-21T17:12:21.143Z,16.67
2023-02-21T17:15:23.860Z,15.48
2023-02-21T17:18:29.475Z,17.65
2023-02-21T17:21:32.067Z,17.77
2023-02-21T17:24:33.915Z,19.33
2023-02-21T17:27:36.349Z,17.05
2023-02-21T17:30:38.180Z,17.43
2023-02-21T17:33:40.861Z,17.08
2023-02-21T17:36:42.650Z,19.27
2023-02-21T17:39:44.599Z,19.92
2023-02-21T17:42:46.615Z,21.80
2023-02-21T17:45:48.407Z,21.42
2023-02-21T17:48:50.251Z,19.27
2023-02-21T17:51:53.067Z,18.58
2023-02-21T17:54:55.156Z,19.08
2023-02-21T17:57:57.578Z,19.17
2023-02-21T18:00:59.929Z,18.40
2023-02-21T18:04:02.579Z,17.48
2023-02-21T18:07:04.545Z,17.42
2023-02-21T18:10:07.851Z,18.77
2023-02-21T18:16:11.490Z,17.92
2023-02-21T18:19:13.689Z,17.25
2023-02-21T18:22:15.567Z,20.33
2023-02-21T18:25:21.446Z,25.08
2023-02-21T18:28:24.186Z,22.00
2023-02-21T18:31:26.358Z,23.00
2023-02-21T18:34:28.414Z,23.60
2023-02-21T18:37:30.198Z,22.77
2023-02-21T18:40:34.847Z,21.55
2023-02-21T18:43:36.739Z,22.02
2023-02-21T18:46:41.008Z,19.33
2023-02-21T18:53:04.113Z,16.67
2023-02-21T18:56:11.223Z,16.13
2023-02-21T18:59:12.957Z,16.52
2023-02-21T19:02:17.399Z,16.75
2023-02-21T19:05:23.409Z,16.77
2023-02-21T19:08:25.279Z,17.65
2023-02-21T19:11:31.810Z,18.85
2023-02-21T19:14:34.034Z,17.50
2023-02-21T19:17:36.550Z,17.10
2023-02-21T19:20:40.012Z,18.90
2023-02-21T19:23:42.315Z,17.63
2023-02-21T19:26:47.123Z,16.55
2023-02-21T19:29:49.129Z,18.45
2023-02-21T19:32:50.907Z,17.90
2023-02-21T19:35:53.022Z,17.65
2023-02-21T19:38:55.165Z,18.73
2023-02-21T19:41:57.369Z,20.70
2023-02-21T19:45:02.534Z,23.05
2023-02-21T19:48:04.580Z,22.05
2023-02-21T19:51:06.949Z,26.10
2023-02-21T19:54:09.129Z,24.48
2023-02-21T19:57:11.580Z,25.38
2023-02-21T20:00:13.706Z,23.70
2023-02-21T20:03:15.541Z,24.80
2023-02-21T20:06:18.275Z,24.33
2023-02-21T20:09:20.299Z,26.55
2023-02-21T20:12:22.983Z,23.35
2023-02-21T20:15:25.467Z,23.52
2023-02-21T20:18:27.414Z,23.98
2023-02-21T20:21:30.748Z,32.05
2023-02-21T20:27:35.797Z,24.60
2023-02-21T20:30:38.925Z,27.90
2023-02-21T20:33:41.074Z,29.25
2023-02-21T20:36:45.182Z,28.85
2023-02-21T20:39:49.526Z,27.40
2023-02-21T20:42:51.532Z,27.77
2023-02-21T20:45:53.717Z,26.75
2023-02-21T20:48:58.536Z,26.33
2023-02-21T20:52:01.184Z,27.15
2023-02-21T20:55:04.330Z,26.35
2023-02-21T20:58:06.353Z,28.48
2023-02-21T21:01:14.119Z,28.55
2023-02-21T21:04:26.532Z,25.92
2023-02-21T21:07:29.664Z,22.42
2023-02-21T21:10:31.434Z,23.20
2023-02-21T21:13:33.208Z,22.88
2023-02-21T21:16:35.280Z,22.73
2023-02-21T21:19:37.818Z,23.08
2023-02-21T21:22:40.274Z,22.63
2023-02-21T21:25:44.699Z,24.52
2023-02-21T21:28:47.022Z,26.13
2023-02-21T21:31:50.767Z,24.55
2023-02-21T21:34:54.850Z,25.23
2023-02-21T21:37:58.108Z,25.42
2023-02-21T21:40:59.981Z,23.33
2023-02-21T21:44:02.231Z,23.83
2023-02-21T21:47:05.433Z,24.00
2023-02-21T21:50:07.805Z,23.08
2023-02-21T21:53:10.481Z,22.92
2023-02-21T21:56:12.248Z,24.80
2023-02-21T21:59:20.951Z,23.83
2023-02-21T22:02:22.920Z,24.80
2023-02-21T22:05:30.364Z,25.75
2023-02-21T22:08:32.366Z,24.80
2023-02-21T22:11:35.696Z,23.92
2023-02-21T22:14:37.504Z,25.42
2023-02-21T22:17:40.825Z,28.45
2023-02-21T22:23:45.128Z,28.63
2023-02-21T22:26:47.696Z,30.95
2023-02-21T22:29:49.789Z,31.63
2023-02-21T22:32:52.377Z,30.80
2023-02-21T22:35:54.124Z,30.10
2023-02-21T22:38:56.158Z,28.35
2023-02-21T22:41:57.988Z,27.08
2023-02-21T22:44:59.937Z,26.63
2023-02-21T22:48:07.448Z,27.35
2023-02-21T22:51:09.432Z,28.20
2023-02-21T22:54:16.084Z,27.25
2023-02-21T22:57:19.094Z,25.98
2023-02-21T23:00:26.138Z,26.20
2023-02-21T23:03:28.957Z,26.85
2023-02-21T23:06:30.719Z,25.83
2023-02-21T23:09:36.997Z,26.88
2023-02-21T23:12:38.936Z,29.33
2023-02-21T23:15:42.118Z,28.85
2023-02-21T23:18:44.020Z,29.40
2023-02-21T23:21:48.412Z,29.95
2023-02-21T23:24:50.220Z,29.35
2023-02-21T23:27:57.928Z,28.70
2023-02-21T23:30:59.961Z,27.60
2023-02-21T23:34:01.889Z,24.88
2023-02-21T23:37:07.160Z,24.38
2023-02-21T23:40:17.296Z,23.75
2023-02-21T23:43:19.306Z,23.42
2023-02-21T23:46:24.541Z,23.15
2023-02-21T23:49:26.534Z,25.23
2023-02-21T23:52:29.369Z,23.92
2023-02-21T23:55:35.639Z,22.60
2023-02-21T23:58:39.146Z,24.58
